sensor_id;sensor_type;location;lat;lon;timestamp;P1;durP1;ratioP1;P2;durP2;ratioP2
55732;SDS011;41637;52.364;9.910;2023-07-24T00:01:13;1.90;;;1.00;;
55732;SDS011;41637;52.364;9.910;2023-07-24T00:03:41;1.50;;;0.90;;
55732;SDS011;41637;52.364;9.910;2023-07-24T00:06:08;2.70;;;1.20;;
55732;SDS011;41637;52.364;9.910;2023-07-24T00:08:35;1.80;;;1.00;;
55732;SDS011;41637;52.364;9.910;2023-07-24T00:11:02;2.50;;;1.20;;
55732;SDS011;41637;52.364;9.910;2023-07-24T00:13:31;2.20;;;1.10;;
55732;SDS011;41637;52.364;9.910;2023-07-24T00:15:58;2.00;;;1.10;;
55732;SDS011;41637;52.364;9.910;2023-07-24T00:18:25;1.90;;;1.10;;
55732;SDS011;41637;52.364;9.910;2023-07-24T00:20:52;2.20;;;1.30;;
55732;SDS011;41637;52.364;9.910;2023-07-24T00:23:19;2.10;;;1.00;;
55732;SDS011;41637;52.364;9.910;2023-07-24T00:25:46;1.60;;;1.00;;
55732;SDS011;41637;52.364;9.910;2023-07-24T00:28:13;2.00;;;1.00;;
55732;SDS011;41637;52.364;9.910;2023-07-24T00:30:39;1.70;;;0.90;;
55732;SDS011;41637;52.364;9.910;2023-07-24T00:33:07;1.30;;;0.90;;
55732;SDS011;41637;52.364;9.910;2023-07-24T00:35:34;2.60;;;1.00;;
55732;SDS011;41637;52.364;9.910;2023-07-24T00:38:00;1.80;;;1.00;;
55732;SDS011;41637;52.364;9.910;2023-07-24T00:40:27;2.50;;;1.30;;
55732;SDS011;41637;52.364;9.910;2023-07-24T00:42:54;2.20;;;1.00;;
55732;SDS011;41637;52.364;9.910;2023-07-24T00:45:21;1.80;;;1.10;;
55732;SDS011;41637;52.364;9.910;2023-07-24T00:47:48;1.90;;;1.20;;
55732;SDS011;41637;52.364;9.910;2023-07-24T00:50:16;1.90;;;1.20;;
55732;SDS011;41637;52.364;9.910;2023-07-24T00:52:44;2.20;;;1.10;;
55732;SDS011;41637;52.364;9.910;2023-07-24T00:55:11;2.10;;;1.00;;
55732;SDS011;41637;52.364;9.910;2023-07-24T00:57:39;2.00;;;1.20;;
55732;SDS011;41637;52.364;9.910;2023-07-24T01:00:06;2.10;;;1.30;;
55732;SDS011;41637;52.364;9.910;2023-07-24T01:02:34;2.00;;;1.30;;
55732;SDS011;41637;52.364;9.910;2023-07-24T01:05:01;2.30;;;1.20;;
55732;SDS011;41637;52.364;9.910;2023-07-24T01:07:28;2.10;;;1.50;;
55732;SDS011;41637;52.364;9.910;2023-07-24T01:09:55;2.00;;;1.40;;
55732;SDS011;41637;52.364;9.910;2023-07-24T01:12:25;2.70;;;1.40;;
55732;SDS011;41637;52.364;9.910;2023-07-24T01:15:16;3.00;;;1.50;;
55732;SDS011;41637;52.364;9.910;2023-07-24T01:17:54;2.60;;;1.50;;
55732;SDS011;41637;52.364;9.910;2023-07-24T01:20:26;3.80;;;1.60;;
55732;SDS011;41637;52.364;9.910;2023-07-24T01:26:16;2.70;;;1.50;;
55732;SDS011;41637;52.364;9.910;2023-07-24T01:28:44;3.50;;;1.90;;
55732;SDS011;41637;52.364;9.910;2023-07-24T01:31:12;3.10;;;1.70;;
55732;SDS011;41637;52.364;9.910;2023-07-24T01:33:38;3.50;;;1.80;;
55732;SDS011;41637;52.364;9.910;2023-07-24T01:36:05;2.70;;;1.90;;
55732;SDS011;41637;52.364;9.910;2023-07-24T01:38:34;2.60;;;1.80;;
55732;SDS011;41637;52.364;9.910;2023-07-24T01:41:01;2.70;;;1.80;;
55732;SDS011;41637;52.364;9.910;2023-07-24T01:43:29;2.40;;;2.00;;
55732;SDS011;41637;52.364;9.910;2023-07-24T01:45:56;2.80;;;1.80;;
55732;SDS011;41637;52.364;9.910;2023-07-24T01:48:23;2.50;;;1.90;;
55732;SDS011;41637;52.364;9.910;2023-07-24T01:50:51;2.40;;;2.00;;
55732;SDS011;41637;52.364;9.910;2023-07-24T01:53:18;2.60;;;1.70;;
55732;SDS011;41637;52.364;9.910;2023-07-24T01:55:44;3.10;;;1.90;;
55732;SDS011;41637;52.364;9.910;2023-07-24T01:58:11;2.50;;;2.20;;
55732;SDS011;41637;52.364;9.910;2023-07-24T02:00:38;2.70;;;2.00;;
55732;SDS011;41637;52.364;9.910;2023-07-24T02:03:05;3.60;;;2.20;;
55732;SDS011;41637;52.364;9.910;2023-07-24T02:05:32;2.50;;;2.00;;
55732;SDS011;41637;52.364;9.910;2023-07-24T02:07:58;3.50;;;1.90;;
55732;SDS011;41637;52.364;9.910;2023-07-24T02:10:25;3.10;;;1.90;;
55732;SDS011;41637;52.364;9.910;2023-07-24T02:12:52;2.40;;;1.80;;
55732;SDS011;41637;52.364;9.910;2023-07-24T02:15:19;3.10;;;2.10;;
55732;SDS011;41637;52.364;9.910;2023-07-24T02:17:46;3.80;;;2.10;;
55732;SDS011;41637;52.364;9.910;2023-07-24T02:20:13;3.30;;;1.90;;
55732;SDS011;41637;52.364;9.910;2023-07-24T02:22:40;3.00;;;2.10;;
55732;SDS011;41637;52.364;9.910;2023-07-24T02:25:08;3.80;;;2.30;;
55732;SDS011;41637;52.364;9.910;2023-07-24T02:27:35;2.60;;;2.00;;
55732;SDS011;41637;52.364;9.910;2023-07-24T02:30:02;3.30;;;1.90;;
55732;SDS011;41637;52.364;9.910;2023-07-24T02:32:29;2.10;;;1.60;;
55732;SDS011;41637;52.364;9.910;2023-07-24T02:34:56;2.10;;;1.80;;
55732;SDS011;41637;52.364;9.910;2023-07-24T02:37:23;3.90;;;1.80;;
55732;SDS011;41637;52.364;9.910;2023-07-24T02:39:51;2.70;;;1.80;;
55732;SDS011;41637;52.364;9.910;2023-07-24T02:42:18;2.90;;;1.60;;
55732;SDS011;41637;52.364;9.910;2023-07-24T02:44:45;2.60;;;1.50;;
55732;SDS011;41637;52.364;9.910;2023-07-24T02:47:11;2.50;;;1.70;;
55732;SDS011;41637;52.364;9.910;2023-07-24T02:49:39;2.60;;;1.70;;
55732;SDS011;41637;52.364;9.910;2023-07-24T02:52:06;2.80;;;1.60;;
55732;SDS011;41637;52.364;9.910;2023-07-24T02:54:33;2.40;;;1.50;;
55732;SDS011;41637;52.364;9.910;2023-07-24T02:57:00;3.30;;;1.80;;
55732;SDS011;41637;52.364;9.910;2023-07-24T02:59:29;2.50;;;1.70;;
55732;SDS011;41637;52.364;9.910;2023-07-24T03:01:56;2.30;;;1.60;;
55732;SDS011;41637;52.364;9.910;2023-07-24T03:04:23;2.90;;;1.70;;
55732;SDS011;41637;52.364;9.910;2023-07-24T03:06:50;2.40;;;1.80;;
55732;SDS011;41637;52.364;9.910;2023-07-24T03:09:17;3.00;;;1.60;;
55732;SDS011;41637;52.364;9.910;2023-07-24T03:11:43;3.00;;;1.60;;
55732;SDS011;41637;52.364;9.910;2023-07-24T03:14:10;3.80;;;1.60;;
55732;SDS011;41637;52.364;9.910;2023-07-24T03:16:37;2.20;;;1.40;;
55732;SDS011;41637;52.364;9.910;2023-07-24T03:19:04;2.30;;;1.60;;
55732;SDS011;41637;52.364;9.910;2023-07-24T03:21:31;2.30;;;1.40;;
55732;SDS011;41637;52.364;9.910;2023-07-24T03:23:57;2.20;;;1.60;;
55732;SDS011;41637;52.364;9.910;2023-07-24T03:26:24;2.50;;;1.50;;
55732;SDS011;41637;52.364;9.910;2023-07-24T03:28:51;2.00;;;1.30;;
55732;SDS011;41637;52.364;9.910;2023-07-24T03:31:18;2.60;;;1.50;;
55732;SDS011;41637;52.364;9.910;2023-07-24T03:33:45;2.10;;;1.30;;
55732;SDS011;41637;52.364;9.910;2023-07-24T03:36:12;2.20;;;1.30;;
55732;SDS011;41637;52.364;9.910;2023-07-24T03:38:39;2.70;;;1.60;;
55732;SDS011;41637;52.364;9.910;2023-07-24T03:41:05;2.40;;;1.40;;
55732;SDS011;41637;52.364;9.910;2023-07-24T03:43:32;2.40;;;1.50;;
55732;SDS011;41637;52.364;9.910;2023-07-24T03:45:59;2.40;;;1.50;;
55732;SDS011;41637;52.364;9.910;2023-07-24T03:48:26;2.40;;;1.60;;
55732;SDS011;41637;52.364;9.910;2023-07-24T03:50:59;2.10;;;1.40;;
55732;SDS011;41637;52.364;9.910;2023-07-24T03:53:27;2.10;;;1.50;;
55732;SDS011;41637;52.364;9.910;2023-07-24T03:55:58;1.90;;;1.30;;
55732;SDS011;41637;52.364;9.910;2023-07-24T03:58:24;2.40;;;1.40;;
55732;SDS011;41637;52.364;9.910;2023-07-24T04:00:51;1.80;;;1.10;;
55732;SDS011;41637;52.364;9.910;2023-07-24T04:03:18;2.90;;;1.30;;
55732;SDS011;41637;52.364;9.910;2023-07-24T04:05:45;2.10;;;1.30;;
55732;SDS011;41637;52.364;9.910;2023-07-24T04:08:12;5.80;;;2.20;;
55732;SDS011;41637;52.364;9.910;2023-07-24T04:10:39;1.90;;;1.20;;
55732;SDS011;41637;52.364;9.910;2023-07-24T04:13:06;2.80;;;1.40;;
55732;SDS011;41637;52.364;9.910;2023-07-24T04:15:32;2.70;;;1.40;;
55732;SDS011;41637;52.364;9.910;2023-07-24T04:17:59;2.10;;;1.50;;
55732;SDS011;41637;52.364;9.910;2023-07-24T04:20:26;2.80;;;1.30;;
55732;SDS011;41637;52.364;9.910;2023-07-24T04:22:53;2.20;;;1.30;;
55732;SDS011;41637;52.364;9.910;2023-07-24T04:25:19;3.00;;;1.50;;
55732;SDS011;41637;52.364;9.910;2023-07-24T04:27:46;2.20;;;1.30;;
55732;SDS011;41637;52.364;9.910;2023-07-24T04:30:13;4.00;;;1.40;;
55732;SDS011;41637;52.364;9.910;2023-07-24T04:32:40;2.60;;;1.40;;
55732;SDS011;41637;52.364;9.910;2023-07-24T04:35:08;2.40;;;1.40;;
55732;SDS011;41637;52.364;9.910;2023-07-24T04:37:35;4.10;;;1.60;;
55732;SDS011;41637;52.364;9.910;2023-07-24T04:40:02;2.20;;;1.30;;
55732;SDS011;41637;52.364;9.910;2023-07-24T04:42:28;2.30;;;1.30;;
55732;SDS011;41637;52.364;9.910;2023-07-24T04:44:55;2.30;;;1.30;;
55732;SDS011;41637;52.364;9.910;2023-07-24T04:47:22;3.40;;;1.60;;
55732;SDS011;41637;52.364;9.910;2023-07-24T04:49:49;2.80;;;1.50;;
55732;SDS011;41637;52.364;9.910;2023-07-24T04:52:16;2.20;;;1.50;;
55732;SDS011;41637;52.364;9.910;2023-07-24T04:54:43;2.30;;;1.40;;
55732;SDS011;41637;52.364;9.910;2023-07-24T04:57:10;2.80;;;1.40;;
55732;SDS011;41637;52.364;9.910;2023-07-24T04:59:37;3.30;;;1.50;;
55732;SDS011;41637;52.364;9.910;2023-07-24T05:02:04;2.10;;;1.30;;
55732;SDS011;41637;52.364;9.910;2023-07-24T05:04:31;2.50;;;1.30;;
55732;SDS011;41637;52.364;9.910;2023-07-24T05:06:57;3.20;;;1.50;;
55732;SDS011;41637;52.364;9.910;2023-07-24T05:09:24;3.10;;;1.40;;
55732;SDS011;41637;52.364;9.910;2023-07-24T05:11:51;3.30;;;1.40;;
55732;SDS011;41637;52.364;9.910;2023-07-24T05:14:18;3.70;;;1.50;;
55732;SDS011;41637;52.364;9.910;2023-07-24T05:16:45;2.70;;;1.40;;
55732;SDS011;41637;52.364;9.910;2023-07-24T05:19:12;2.10;;;1.30;;
55732;SDS011;41637;52.364;9.910;2023-07-24T05:21:39;4.00;;;1.50;;
55732;SDS011;41637;52.364;9.910;2023-07-24T05:24:06;2.80;;;1.60;;
55732;SDS011;41637;52.364;9.910;2023-07-24T05:26:32;2.40;;;1.50;;
55732;SDS011;41637;52.364;9.910;2023-07-24T05:28:59;2.00;;;1.30;;
55732;SDS011;41637;52.364;9.910;2023-07-24T05:31:26;3.50;;;1.60;;
55732;SDS011;41637;52.364;9.910;2023-07-24T05:33:53;4.20;;;2.80;;
55732;SDS011;41637;52.364;9.910;2023-07-24T05:36:20;6.80;;;4.40;;
55732;SDS011;41637;52.364;9.910;2023-07-24T05:38:46;3.50;;;1.70;;
55732;SDS011;41637;52.364;9.910;2023-07-24T05:41:13;3.50;;;1.70;;
55732;SDS011;41637;52.364;9.910;2023-07-24T05:43:40;9.80;;;6.90;;
55732;SDS011;41637;52.364;9.910;2023-07-24T05:46:07;2.60;;;1.50;;
55732;SDS011;41637;52.364;9.910;2023-07-24T05:48:34;3.90;;;2.10;;
55732;SDS011;41637;52.364;9.910;2023-07-24T05:51:01;2.20;;;1.20;;
55732;SDS011;41637;52.364;9.910;2023-07-24T05:53:28;3.00;;;1.30;;
55732;SDS011;41637;52.364;9.910;2023-07-24T05:55:56;2.30;;;1.40;;
55732;SDS011;41637;52.364;9.910;2023-07-24T05:58:27;4.50;;;1.90;;
55732;SDS011;41637;52.364;9.910;2023-07-24T06:00:54;3.00;;;1.80;;
55732;SDS011;41637;52.364;9.910;2023-07-24T06:03:24;2.90;;;1.50;;
55732;SDS011;41637;52.364;9.910;2023-07-24T06:05:54;2.40;;;1.50;;
55732;SDS011;41637;52.364;9.910;2023-07-24T06:08:21;2.60;;;1.50;;
55732;SDS011;41637;52.364;9.910;2023-07-24T06:10:49;3.00;;;1.30;;
55732;SDS011;41637;52.364;9.910;2023-07-24T06:13:16;3.70;;;1.30;;
55732;SDS011;41637;52.364;9.910;2023-07-24T06:15:43;3.80;;;1.60;;
55732;SDS011;41637;52.364;9.910;2023-07-24T06:18:10;3.60;;;1.40;;
55732;SDS011;41637;52.364;9.910;2023-07-24T06:20:37;2.30;;;1.40;;
55732;SDS011;41637;52.364;9.910;2023-07-24T06:23:04;3.40;;;1.30;;
55732;SDS011;41637;52.364;9.910;2023-07-24T06:25:31;2.20;;;1.40;;
55732;SDS011;41637;52.364;9.910;2023-07-24T06:27:58;3.00;;;1.60;;
55732;SDS011;41637;52.364;9.910;2023-07-24T06:30:25;3.70;;;1.40;;
55732;SDS011;41637;52.364;9.910;2023-07-24T06:32:52;3.00;;;1.70;;
55732;SDS011;41637;52.364;9.910;2023-07-24T06:35:19;2.70;;;1.50;;
55732;SDS011;41637;52.364;9.910;2023-07-24T06:37:46;3.10;;;1.60;;
55732;SDS011;41637;52.364;9.910;2023-07-24T06:40:13;2.50;;;1.60;;
55732;SDS011;41637;52.364;9.910;2023-07-24T06:42:40;3.30;;;1.60;;
55732;SDS011;41637;52.364;9.910;2023-07-24T06:45:06;2.50;;;1.70;;
55732;SDS011;41637;52.364;9.910;2023-07-24T06:47:34;5.20;;;1.80;;
55732;SDS011;41637;52.364;9.910;2023-07-24T06:50:01;4.10;;;1.90;;
55732;SDS011;41637;52.364;9.910;2023-07-24T06:52:29;4.40;;;1.70;;
55732;SDS011;41637;52.364;9.910;2023-07-24T06:54:55;2.90;;;1.50;;
55732;SDS011;41637;52.364;9.910;2023-07-24T06:57:24;2.90;;;1.70;;
55732;SDS011;41637;52.364;9.910;2023-07-24T06:59:51;3.10;;;1.60;;
55732;SDS011;41637;52.364;9.910;2023-07-24T07:02:20;3.60;;;1.60;;
55732;SDS011;41637;52.364;9.910;2023-07-24T07:04:47;6.20;;;2.10;;
55732;SDS011;41637;52.364;9.910;2023-07-24T07:11:01;3.30;;;1.80;;
55732;SDS011;41637;52.364;9.910;2023-07-24T07:13:28;37.40;;;31.50;;
55732;SDS011;41637;52.364;9.910;2023-07-24T07:15:55;18.40;;;13.80;;
55732;SDS011;41637;52.364;9.910;2023-07-24T07:18:22;19.40;;;13.20;;
55732;SDS011;41637;52.364;9.910;2023-07-24T07:20:50;16.60;;;11.00;;
55732;SDS011;41637;52.364;9.910;2023-07-24T07:23:18;27.90;;;21.00;;
55732;SDS011;41637;52.364;9.910;2023-07-24T07:25:45;29.30;;;20.30;;
55732;SDS011;41637;52.364;9.910;2023-07-24T07:28:13;3.80;;;1.90;;
55732;SDS011;41637;52.364;9.910;2023-07-24T07:30:41;5.20;;;1.90;;
55732;SDS011;41637;52.364;9.910;2023-07-24T07:33:11;4.20;;;2.60;;
55732;SDS011;41637;52.364;9.910;2023-07-24T07:35:38;3.90;;;2.30;;
55732;SDS011;41637;52.364;9.910;2023-07-24T07:38:04;4.40;;;2.00;;
55732;SDS011;41637;52.364;9.910;2023-07-24T07:40:49;3.30;;;2.00;;
55732;SDS011;41637;52.364;9.910;2023-07-24T07:43:16;3.90;;;2.40;;
55732;SDS011;41637;52.364;9.910;2023-07-24T07:45:43;7.80;;;2.50;;
55732;SDS011;41637;52.364;9.910;2023-07-24T07:48:10;4.80;;;2.30;;
55732;SDS011;41637;52.364;9.910;2023-07-24T07:50:36;3.20;;;2.40;;
55732;SDS011;41637;52.364;9.910;2023-07-24T07:53:03;4.00;;;2.40;;
55732;SDS011;41637;52.364;9.910;2023-07-24T07:55:30;4.30;;;2.40;;
55732;SDS011;41637;52.364;9.910;2023-07-24T07:57:57;5.90;;;2.70;;
55732;SDS011;41637;52.364;9.910;2023-07-24T08:00:23;5.50;;;3.00;;
55732;SDS011;41637;52.364;9.910;2023-07-24T08:02:50;5.90;;;2.80;;
55732;SDS011;41637;52.364;9.910;2023-07-24T08:05:17;7.40;;;3.30;;
55732;SDS011;41637;52.364;9.910;2023-07-24T08:07:47;6.20;;;3.30;;
55732;SDS011;41637;52.364;9.910;2023-07-24T08:10:14;5.60;;;3.60;;
55732;SDS011;41637;52.364;9.910;2023-07-24T08:12:43;4.80;;;3.20;;
55732;SDS011;41637;52.364;9.910;2023-07-24T08:15:10;5.60;;;3.20;;
55732;SDS011;41637;52.364;9.910;2023-07-24T08:17:37;10.90;;;3.00;;
55732;SDS011;41637;52.364;9.910;2023-07-24T08:20:04;6.40;;;3.10;;
55732;SDS011;41637;52.364;9.910;2023-07-24T08:22:32;5.50;;;2.90;;
55732;SDS011;41637;52.364;9.910;2023-07-24T08:24:58;5.30;;;3.10;;
55732;SDS011;41637;52.364;9.910;2023-07-24T08:27:25;6.70;;;2.80;;
55732;SDS011;41637;52.364;9.910;2023-07-24T08:29:52;8.40;;;4.10;;
55732;SDS011;41637;52.364;9.910;2023-07-24T08:32:19;10.20;;;4.00;;
55732;SDS011;41637;52.364;9.910;2023-07-24T08:34:47;8.90;;;4.10;;
55732;SDS011;41637;52.364;9.910;2023-07-24T08:37:14;6.70;;;3.80;;
55732;SDS011;41637;52.364;9.910;2023-07-24T08:39:41;6.30;;;3.20;;
55732;SDS011;41637;52.364;9.910;2023-07-24T08:42:08;5.50;;;3.00;;
55732;SDS011;41637;52.364;9.910;2023-07-24T08:44:39;5.20;;;2.90;;
55732;SDS011;41637;52.364;9.910;2023-07-24T08:47:06;4.30;;;2.60;;
55732;SDS011;41637;52.364;9.910;2023-07-24T08:49:37;6.00;;;3.00;;
55732;SDS011;41637;52.364;9.910;2023-07-24T08:52:06;5.00;;;3.00;;
55732;SDS011;41637;52.364;9.910;2023-07-24T08:54:37;6.90;;;3.70;;
55732;SDS011;41637;52.364;9.910;2023-07-24T08:57:08;6.90;;;2.90;;
55732;SDS011;41637;52.364;9.910;2023-07-24T08:59:35;4.90;;;3.00;;
55732;SDS011;41637;52.364;9.910;2023-07-24T09:02:02;6.80;;;3.20;;
55732;SDS011;41637;52.364;9.910;2023-07-24T09:04:29;3.90;;;2.50;;
55732;SDS011;41637;52.364;9.910;2023-07-24T09:06:56;5.10;;;2.90;;
55732;SDS011;41637;52.364;9.910;2023-07-24T09:09:28;5.70;;;2.90;;
55732;SDS011;41637;52.364;9.910;2023-07-24T09:11:57;5.00;;;2.80;;
55732;SDS011;41637;52.364;9.910;2023-07-24T09:14:26;5.00;;;3.00;;
55732;SDS011;41637;52.364;9.910;2023-07-24T09:17:01;4.00;;;2.60;;
55732;SDS011;41637;52.364;9.910;2023-07-24T09:19:35;4.30;;;2.70;;
55732;SDS011;41637;52.364;9.910;2023-07-24T09:24:54;4.60;;;3.00;;
55732;SDS011;41637;52.364;9.910;2023-07-24T09:27:26;3.60;;;2.90;;
55732;SDS011;41637;52.364;9.910;2023-07-24T09:29:57;3.60;;;2.90;;
55732;SDS011;41637;52.364;9.910;2023-07-24T09:32:25;4.60;;;2.80;;
55732;SDS011;41637;52.364;9.910;2023-07-24T09:34:52;3.90;;;3.10;;
55732;SDS011;41637;52.364;9.910;2023-07-24T09:37:23;4.90;;;3.30;;
55732;SDS011;41637;52.364;9.910;2023-07-24T09:39:55;3.90;;;3.00;;
55732;SDS011;41637;52.364;9.910;2023-07-24T09:42:29;4.40;;;3.00;;
55732;SDS011;41637;52.364;9.910;2023-07-24T09:45:23;3.80;;;2.80;;
55732;SDS011;41637;52.364;9.910;2023-07-24T09:47:51;3.70;;;3.00;;
55732;SDS011;41637;52.364;9.910;2023-07-24T09:50:28;2.90;;;2.40;;
55732;SDS011;41637;52.364;9.910;2023-07-24T09:52:54;3.40;;;2.50;;
55732;SDS011;41637;52.364;9.910;2023-07-24T09:55:25;3.40;;;2.70;;
55732;SDS011;41637;52.364;9.910;2023-07-24T09:57:56;4.20;;;2.70;;
55732;SDS011;41637;52.364;9.910;2023-07-24T10:00:25;3.60;;;2.60;;
55732;SDS011;41637;52.364;9.910;2023-07-24T10:02:51;3.70;;;2.60;;
55732;SDS011;41637;52.364;9.910;2023-07-24T10:05:19;3.20;;;2.80;;
55732;SDS011;41637;52.364;9.910;2023-07-24T10:07:46;3.90;;;2.80;;
55732;SDS011;41637;52.364;9.910;2023-07-24T10:10:13;3.90;;;2.50;;
55732;SDS011;41637;52.364;9.910;2023-07-24T10:12:41;3.40;;;2.90;;
55732;SDS011;41637;52.364;9.910;2023-07-24T10:15:08;3.70;;;2.50;;
55732;SDS011;41637;52.364;9.910;2023-07-24T10:17:38;3.20;;;2.50;;
55732;SDS011;41637;52.364;9.910;2023-07-24T10:20:10;4.50;;;2.90;;
55732;SDS011;41637;52.364;9.910;2023-07-24T10:22:41;3.90;;;2.30;;
55732;SDS011;41637;52.364;9.910;2023-07-24T10:25:09;4.90;;;2.40;;
55732;SDS011;41637;52.364;9.910;2023-07-24T10:27:43;3.20;;;2.40;;
55732;SDS011;41637;52.364;9.910;2023-07-24T10:30:13;2.90;;;2.10;;
55732;SDS011;41637;52.364;9.910;2023-07-24T10:33:09;4.00;;;2.40;;
55732;SDS011;41637;52.364;9.910;2023-07-24T10:35:42;3.50;;;2.50;;
55732;SDS011;41637;52.364;9.910;2023-07-24T10:38:10;3.10;;;2.10;;
55732;SDS011;41637;52.364;9.910;2023-07-24T10:40:39;4.10;;;3.10;;
55732;SDS011;41637;52.364;9.910;2023-07-24T10:43:07;5.10;;;2.50;;
55732;SDS011;41637;52.364;9.910;2023-07-24T10:48:16;3.60;;;2.20;;
55732;SDS011;41637;52.364;9.910;2023-07-24T10:50:45;3.50;;;2.40;;
55732;SDS011;41637;52.364;9.910;2023-07-24T10:53:18;5.30;;;2.30;;
55732;SDS011;41637;52.364;9.910;2023-07-24T10:55:47;3.70;;;2.10;;
55732;SDS011;41637;52.364;9.910;2023-07-24T10:58:14;4.20;;;2.30;;
55732;SDS011;41637;52.364;9.910;2023-07-24T11:00:42;3.60;;;2.40;;
55732;SDS011;41637;52.364;9.910;2023-07-24T11:03:10;3.70;;;2.30;;
55732;SDS011;41637;52.364;9.910;2023-07-24T11:05:44;2.90;;;2.50;;
55732;SDS011;41637;52.364;9.910;2023-07-24T11:08:13;2.80;;;2.20;;
55732;SDS011;41637;52.364;9.910;2023-07-24T11:13:16;3.20;;;2.60;;
55732;SDS011;41637;52.364;9.910;2023-07-24T11:15:43;4.40;;;2.60;;
55732;SDS011;41637;52.364;9.910;2023-07-24T11:18:11;3.20;;;2.40;;
55732;SDS011;41637;52.364;9.910;2023-07-24T11:21:00;3.70;;;2.40;;
55732;SDS011;41637;52.364;9.910;2023-07-24T11:23:25;3.50;;;2.50;;
55732;SDS011;41637;52.364;9.910;2023-07-24T11:25:52;4.80;;;2.50;;
55732;SDS011;41637;52.364;9.910;2023-07-24T11:28:20;3.70;;;2.60;;
55732;SDS011;41637;52.364;9.910;2023-07-24T11:30:47;3.90;;;2.60;;
55732;SDS011;41637;52.364;9.910;2023-07-24T11:33:14;4.40;;;2.60;;
55732;SDS011;41637;52.364;9.910;2023-07-24T11:35:45;4.60;;;2.60;;
55732;SDS011;41637;52.364;9.910;2023-07-24T11:38:12;4.50;;;2.60;;
55732;SDS011;41637;52.364;9.910;2023-07-24T11:40:40;4.10;;;2.80;;
55732;SDS011;41637;52.364;9.910;2023-07-24T11:43:22;4.30;;;2.80;;
55732;SDS011;41637;52.364;9.910;2023-07-24T11:45:50;4.00;;;2.40;;
55732;SDS011;41637;52.364;9.910;2023-07-24T11:48:19;3.40;;;2.60;;
55732;SDS011;41637;52.364;9.910;2023-07-24T11:50:47;3.40;;;2.80;;
55732;SDS011;41637;52.364;9.910;2023-07-24T11:53:23;3.60;;;2.80;;
55732;SDS011;41637;52.364;9.910;2023-07-24T11:55:52;4.20;;;3.00;;
55732;SDS011;41637;52.364;9.910;2023-07-24T11:58:20;5.60;;;2.90;;
55732;SDS011;41637;52.364;9.910;2023-07-24T12:00:48;3.30;;;3.00;;
55732;SDS011;41637;52.364;9.910;2023-07-24T12:03:21;2.60;;;2.20;;
55732;SDS011;41637;52.364;9.910;2023-07-24T12:05:54;3.70;;;1.90;;
55732;SDS011;41637;52.364;9.910;2023-07-24T12:08:29;4.70;;;2.30;;
55732;SDS011;41637;52.364;9.910;2023-07-24T12:10:57;3.40;;;2.40;;
55732;SDS011;41637;52.364;9.910;2023-07-24T12:13:24;3.30;;;2.20;;
55732;SDS011;41637;52.364;9.910;2023-07-24T12:15:51;3.60;;;2.60;;
55732;SDS011;41637;52.364;9.910;2023-07-24T12:18:17;3.40;;;3.00;;
55732;SDS011;41637;52.364;9.910;2023-07-24T12:20:44;4.70;;;3.30;;
55732;SDS011;41637;52.364;9.910;2023-07-24T12:23:11;4.00;;;3.60;;
55732;SDS011;41637;52.364;9.910;2023-07-24T12:25:38;4.30;;;3.20;;
55732;SDS011;41637;52.364;9.910;2023-07-24T12:28:05;4.60;;;3.10;;
55732;SDS011;41637;52.364;9.910;2023-07-24T12:30:32;4.50;;;3.30;;
55732;SDS011;41637;52.364;9.910;2023-07-24T12:32:58;4.00;;;3.10;;
55732;SDS011;41637;52.364;9.910;2023-07-24T12:35:25;3.20;;;2.80;;
55732;SDS011;41637;52.364;9.910;2023-07-24T12:37:52;4.20;;;2.80;;
55732;SDS011;41637;52.364;9.910;2023-07-24T12:40:19;4.00;;;3.00;;
55732;SDS011;41637;52.364;9.910;2023-07-24T12:42:45;3.60;;;2.90;;
55732;SDS011;41637;52.364;9.910;2023-07-24T12:45:13;3.90;;;3.40;;
55732;SDS011;41637;52.364;9.910;2023-07-24T12:47:40;7.30;;;3.60;;
55732;SDS011;41637;52.364;9.910;2023-07-24T12:50:06;3.90;;;2.90;;
55732;SDS011;41637;52.364;9.910;2023-07-24T12:52:33;4.10;;;3.00;;
55732;SDS011;41637;52.364;9.910;2023-07-24T12:55:00;3.30;;;2.80;;
55732;SDS011;41637;52.364;9.910;2023-07-24T12:57:28;4.20;;;3.10;;
55732;SDS011;41637;52.364;9.910;2023-07-24T12:59:55;4.20;;;3.40;;
55732;SDS011;41637;52.364;9.910;2023-07-24T13:02:22;4.30;;;3.90;;
55732;SDS011;41637;52.364;9.910;2023-07-24T13:04:49;4.10;;;3.30;;
55732;SDS011;41637;52.364;9.910;2023-07-24T13:07:16;4.30;;;3.30;;
55732;SDS011;41637;52.364;9.910;2023-07-24T13:09:43;5.00;;;3.80;;
55732;SDS011;41637;52.364;9.910;2023-07-24T13:12:10;4.70;;;3.80;;
55732;SDS011;41637;52.364;9.910;2023-07-24T13:14:37;5.00;;;4.50;;
55732;SDS011;41637;52.364;9.910;2023-07-24T13:17:07;5.50;;;4.30;;
55732;SDS011;41637;52.364;9.910;2023-07-24T13:19:34;4.40;;;3.90;;
55732;SDS011;41637;52.364;9.910;2023-07-24T13:22:01;5.90;;;4.60;;
55732;SDS011;41637;52.364;9.910;2023-07-24T13:24:28;4.30;;;3.90;;
55732;SDS011;41637;52.364;9.910;2023-07-24T13:26:55;4.60;;;3.70;;
55732;SDS011;41637;52.364;9.910;2023-07-24T13:29:22;5.30;;;4.50;;
55732;SDS011;41637;52.364;9.910;2023-07-24T13:31:51;5.50;;;3.90;;
55732;SDS011;41637;52.364;9.910;2023-07-24T13:34:18;5.00;;;3.80;;
55732;SDS011;41637;52.364;9.910;2023-07-24T13:36:46;5.60;;;4.30;;
55732;SDS011;41637;52.364;9.910;2023-07-24T13:39:13;4.50;;;3.70;;
55732;SDS011;41637;52.364;9.910;2023-07-24T13:41:40;4.70;;;3.30;;
55732;SDS011;41637;52.364;9.910;2023-07-24T13:44:07;4.90;;;3.40;;
55732;SDS011;41637;52.364;9.910;2023-07-24T13:46:34;4.50;;;3.50;;
55732;SDS011;41637;52.364;9.910;2023-07-24T13:49:05;3.70;;;3.20;;
55732;SDS011;41637;52.364;9.910;2023-07-24T13:51:32;4.60;;;3.10;;
55732;SDS011;41637;52.364;9.910;2023-07-24T13:53:59;3.70;;;3.20;;
55732;SDS011;41637;52.364;9.910;2023-07-24T13:56:28;3.60;;;3.20;;
55732;SDS011;41637;52.364;9.910;2023-07-24T13:58:57;3.90;;;3.40;;
55732;SDS011;41637;52.364;9.910;2023-07-24T14:01:24;5.40;;;4.20;;
55732;SDS011;41637;52.364;9.910;2023-07-24T14:03:52;4.60;;;3.80;;
55732;SDS011;41637;52.364;9.910;2023-07-24T14:06:19;6.10;;;3.90;;
55732;SDS011;41637;52.364;9.910;2023-07-24T14:08:46;6.20;;;4.10;;
55732;SDS011;41637;52.364;9.910;2023-07-24T14:11:12;6.30;;;4.90;;
55732;SDS011;41637;52.364;9.910;2023-07-24T14:13:39;5.80;;;4.60;;
55732;SDS011;41637;52.364;9.910;2023-07-24T14:16:06;3.70;;;3.30;;
55732;SDS011;41637;52.364;9.910;2023-07-24T14:18:33;3.80;;;3.40;;
55732;SDS011;41637;52.364;9.910;2023-07-24T14:20:59;3.50;;;2.80;;
55732;SDS011;41637;52.364;9.910;2023-07-24T14:23:27;5.10;;;3.10;;
55732;SDS011;41637;52.364;9.910;2023-07-24T14:25:54;4.60;;;3.70;;
55732;SDS011;41637;52.364;9.910;2023-07-24T14:28:21;4.60;;;3.60;;
55732;SDS011;41637;52.364;9.910;2023-07-24T14:30:48;4.90;;;3.60;;
55732;SDS011;41637;52.364;9.910;2023-07-24T14:33:15;4.90;;;4.10;;
55732;SDS011;41637;52.364;9.910;2023-07-24T14:35:42;4.60;;;3.90;;
55732;SDS011;41637;52.364;9.910;2023-07-24T14:38:09;6.40;;;4.40;;
55732;SDS011;41637;52.364;9.910;2023-07-24T14:40:36;5.90;;;4.40;;
55732;SDS011;41637;52.364;9.910;2023-07-24T14:43:02;5.80;;;5.00;;
55732;SDS011;41637;52.364;9.910;2023-07-24T14:45:33;6.30;;;5.50;;
55732;SDS011;41637;52.364;9.910;2023-07-24T14:48:00;5.30;;;4.80;;
55732;SDS011;41637;52.364;9.910;2023-07-24T14:50:27;7.20;;;5.50;;
55732;SDS011;41637;52.364;9.910;2023-07-24T14:52:54;7.20;;;5.60;;
55732;SDS011;41637;52.364;9.910;2023-07-24T14:55:21;5.60;;;4.40;;
55732;SDS011;41637;52.364;9.910;2023-07-24T14:57:48;5.00;;;4.00;;
55732;SDS011;41637;52.364;9.910;2023-07-24T15:00:15;5.20;;;3.30;;
55732;SDS011;41637;52.364;9.910;2023-07-24T15:02:43;4.60;;;3.70;;
55732;SDS011;41637;52.364;9.910;2023-07-24T15:05:10;5.20;;;3.40;;
55732;SDS011;41637;52.364;9.910;2023-07-24T15:07:37;5.20;;;3.30;;